Ipswich, Australia
Current Conditions -  °F | °C
As of 12:00 AM on Tuesday 27 Jan 2015 (Local Time) from YAMB Reporting Station
Scattered Clouds Scattered Clouds  
Wind Chill: 75°   Ceiling: Unl
Heat Index: 75°   Visibility: 6mi
Dew Point: 72°   Wind: 5mph
Humidity: 89%   Direction: 200°SSW
Pressure: 29.74"   Gusts: NA
Location:  27.61°S, 152.76°E
Report Text: YAMB 261400Z AUTO 20004KT 9999 // SCT020 24/22 Q1007
Loading
Personal Weather Stations






























Interactive Weather Map New forecast layout! Learn more

10-Day Weather Forecast

Advertisements
Track Severe Weather on mobile